Time;durP1;ratioP1;P1;durP2;ratioP2;P2;SDS_P1;SDS_P2;PMS_P1;PMS_P2;Temp;Humidity;BMP_temperature;BMP_pressure;BME280_temperature;BME280_humidity;BME280_pressure;Samples;Min_cycle;Max_cycle;Signal;HPM_P1;HPM_P2
2023/10/19 00:00:36;;;;;;;15.00;10.60;;;8.50;99.90;;;;;;5051916;28;20324;-57
2023/10/19 00:03:02;;;;;;;18.03;11.70;;;8.50;99.90;;;;;;5050893;28;20194;-58
2023/10/19 00:05:32;;;;;;;14.40;11.90;;;8.50;99.90;;;;;;5052673;28;20186;-57
2023/10/19 00:07:59;;;;;;;16.40;11.13;;;8.40;99.90;;;;;;5048622;28;20550;-57
2023/10/19 00:10:29;;;;;;;15.47;10.63;;;8.50;99.90;;;;;;5050932;28;20236;-57
2023/10/19 00:13:00;;;;;;;14.80;11.00;;;8.60;99.90;;;;;;5031381;28;20241;-57
2023/10/19 00:15:31;;;;;;;17.60;12.47;;;8.60;99.90;;;;;;5045193;28;20197;-57
2023/10/19 00:17:59;;;;;;;16.57;12.47;;;8.50;99.90;;;;;;5051842;28;20205;-58
2023/10/19 00:20:36;;;;;;;14.17;10.67;;;8.50;99.90;;;;;;5051500;28;20190;-56
2023/10/19 00:23:05;;;;;;;14.97;11.53;;;8.40;99.90;;;;;;5045107;28;20242;-57
2023/10/19 00:25:32;;;;;;;15.10;12.50;;;8.50;99.90;;;;;;5031243;28;20194;-56
2023/10/19 00:28:00;;;;;;;16.23;12.00;;;8.40;99.90;;;;;;5045553;28;20194;-57
2023/10/19 00:30:30;;;;;;;17.07;12.00;;;8.50;99.90;;;;;;5053519;28;20202;-58
2023/10/19 00:32:56;;;;;;;14.33;10.67;;;8.50;99.90;;;;;;5047620;28;20203;-59
2023/10/19 00:35:33;;;;;;;15.10;11.43;;;8.40;99.90;;;;;;5051533;28;20190;-58
2023/10/19 00:40:52;;;;;;;14.27;10.10;;;8.30;99.90;;;;;;5040184;28;20704;-58
2023/10/19 00:43:32;;;;;;;15.73;12.13;;;8.40;99.90;;;;;;5051172;28;20205;-58
2023/10/19 00:45:58;;;;;;;17.37;12.13;;;8.40;99.90;;;;;;5046195;28;20194;-58
2023/10/19 00:48:26;;;;;;;16.63;10.83;;;8.30;99.90;;;;;;5054164;28;20197;-58
2023/10/19 00:50:53;;;;;;;16.47;10.57;;;8.40;99.90;;;;;;5051269;28;20195;-58
2023/10/19 00:53:19;;;;;;;15.63;11.63;;;8.40;99.90;;;;;;5051161;28;20197;-58
2023/10/19 00:55:46;;;;;;;14.23;11.70;;;8.50;99.90;;;;;;5052022;28;20752;-58
2023/10/19 00:58:17;;;;;;;18.77;12.60;;;8.50;99.90;;;;;;5049105;28;20685;-58
2023/10/19 01:00:44;;;;;;;13.40;10.63;;;8.50;99.90;;;;;;5049641;28;20289;-58
2023/10/19 01:03:11;;;;;;;18.07;12.37;;;8.50;99.90;;;;;;5030081;28;20253;-58
2023/10/19 01:05:36;;;;;;;18.13;12.43;;;8.40;99.90;;;;;;5051612;28;20652;-58
2023/10/19 01:08:14;;;;;;;18.23;12.87;;;8.50;99.90;;;;;;5033201;28;20214;-58
2023/10/19 01:10:40;;;;;;;17.10;12.13;;;8.40;99.90;;;;;;5051673;28;20197;-58
2023/10/19 01:13:06;;;;;;;13.70;11.20;;;8.50;99.90;;;;;;5051369;28;20216;-58
2023/10/19 01:15:36;;;;;;;16.67;13.20;;;8.60;99.90;;;;;;5028949;28;20281;-58
2023/10/19 01:18:02;;;;;;;16.93;11.53;;;8.60;99.90;;;;;;5050924;28;20206;-58
2023/10/19 01:25:59;;;;;;;17.73;13.50;;;8.40;99.90;;;;;;5054678;28;20198;-65
2023/10/19 01:28:42;;;;;;;18.27;13.07;;;8.40;99.90;;;;;;5033693;28;20543;-67
2023/10/19 01:31:14;;;;;;;15.67;12.50;;;8.50;99.90;;;;;;5038298;28;20252;-58
2023/10/19 01:33:40;;;;;;;17.77;12.40;;;8.40;99.90;;;;;;5037052;28;20198;-55
2023/10/19 01:36:11;;;;;;;15.77;12.77;;;8.30;99.90;;;;;;5036350;28;20272;-55
2023/10/19 01:38:37;;;;;;;15.27;12.63;;;8.40;99.90;;;;;;5052475;28;20193;-55
2023/10/19 01:41:19;;;;;;;21.93;13.53;;;8.40;99.90;;;;;;5060631;28;20415;-55
2023/10/19 01:43:48;;;;;;;15.47;12.87;;;8.30;99.90;;;;;;5049567;28;20187;-56
2023/10/19 01:46:21;;;;;;;20.83;12.70;;;8.30;99.90;;;;;;5053270;28;20205;-57
2023/10/19 01:48:49;;;;;;;15.80;12.07;;;8.30;99.90;;;;;;5035404;28;20618;-59
2023/10/19 01:51:15;;;;;;;15.93;12.73;;;8.40;99.90;;;;;;5053092;28;20206;-57
2023/10/19 01:53:44;;;;;;;18.07;12.13;;;8.40;99.90;;;;;;5055308;28;20224;-56
2023/10/19 01:56:14;;;;;;;18.03;12.57;;;8.20;99.90;;;;;;5048837;28;20819;-55
2023/10/19 01:58:41;;;;;;;21.60;13.90;;;8.20;99.90;;;;;;5035262;28;20198;-55
2023/10/19 02:01:13;;;;;;;17.40;12.97;;;8.30;99.90;;;;;;5053855;28;20389;-55
2023/10/19 02:03:42;;;;;;;16.63;12.37;;;8.30;99.90;;;;;;5054008;28;20950;-55
2023/10/19 02:06:19;;;;;;;16.67;13.17;;;8.40;99.90;;;;;;5053808;28;20191;-56
2023/10/19 02:08:51;;;;;;;13.67;11.97;;;8.40;99.90;;;;;;5053810;28;20749;-55
2023/10/19 02:11:22;;;;;;;22.33;13.37;;;8.50;99.90;;;;;;5053030;28;20203;-56
2023/10/19 02:13:49;;;;;;;17.87;13.17;;;8.50;99.90;;;;;;5053710;28;20305;-57
2023/10/19 02:16:16;;;;;;;15.43;12.67;;;8.40;99.90;;;;;;5051935;28;20301;-57
2023/10/19 02:18:43;;;;;;;19.43;13.93;;;8.40;99.90;;;;;;5055381;28;20305;-54
2023/10/19 02:21:11;;;;;;;20.17;13.83;;;8.50;99.90;;;;;;5051542;28;20335;-55
2023/10/19 02:23:38;;;;;;;21.77;13.20;;;8.40;99.90;;;;;;5049764;28;20198;-59
2023/10/19 02:26:04;;;;;;;18.87;12.40;;;8.30;99.90;;;;;;5054791;28;20206;-57
2023/10/19 02:28:39;;;;;;;19.93;13.87;;;8.20;99.90;;;;;;5054745;28;20200;-57
2023/10/19 02:31:18;;;;;;;15.80;13.30;;;8.30;99.90;;;;;;5050405;28;20208;-54
2023/10/19 02:33:51;;;;;;;16.77;13.40;;;8.30;99.90;;;;;;5035005;28;20901;-55
2023/10/19 02:36:20;;;;;;;18.27;14.00;;;8.40;99.90;;;;;;5053083;28;20214;-57
2023/10/19 02:38:52;;;;;;;20.43;13.70;;;8.30;99.90;;;;;;5053254;28;20697;-54
2023/10/19 02:41:19;;;;;;;15.03;11.37;;;8.30;99.90;;;;;;5048595;28;20208;-56
2023/10/19 02:43:47;;;;;;;16.37;12.83;;;8.20;99.90;;;;;;5047254;28;20193;-62
2023/10/19 02:46:13;;;;;;;22.17;15.03;;;8.30;99.90;;;;;;5052563;28;20193;-58
2023/10/19 02:48:44;;;;;;;17.20;13.73;;;8.10;99.90;;;;;;5053050;28;20844;-57
2023/10/19 02:51:10;;;;;;;18.37;13.53;;;8.30;99.90;;;;;;5053020;28;20212;-58
2023/10/19 02:53:38;;;;;;;21.33;13.83;;;8.20;99.90;;;;;;5056983;28;20204;-62
2023/10/19 02:56:16;;;;;;;19.70;13.97;;;8.40;99.90;;;;;;5050265;28;20218;-54
2023/10/19 02:58:43;;;;;;;16.63;13.40;;;8.50;99.90;;;;;;5043056;28;20204;-55
2023/10/19 03:01:21;;;;;;;18.70;14.27;;;8.50;99.90;;;;;;5049647;28;20272;-55
2023/10/19 03:03:50;;;;;;;20.27;13.60;;;8.60;99.90;;;;;;5050945;28;20279;-57
2023/10/19 03:06:21;;;;;;;22.33;13.50;;;8.60;99.90;;;;;;5050233;28;20206;-55
2023/10/19 03:08:47;;;;;;;21.93;13.67;;;8.40;99.90;;;;;;5053153;28;20202;-58
2023/10/19 03:11:14;;;;;;;21.37;14.07;;;8.40;99.90;;;;;;5052381;28;20404;-56
2023/10/19 03:13:44;;;;;;;18.33;12.63;;;8.30;99.90;;;;;;5051940;28;20287;-55
2023/10/19 03:16:10;;;;;;;18.43;13.00;;;8.30;99.90;;;;;;5052367;28;21020;-54
2023/10/19 03:18:36;;;;;;;17.73;12.53;;;8.40;99.90;;;;;;5051440;28;20198;-55
2023/10/19 03:21:03;;;;;;;16.70;12.57;;;8.50;99.90;;;;;;5049094;28;20299;-56
2023/10/19 03:23:28;;;;;;;18.97;13.67;;;8.50;99.90;;;;;;5036470;28;20620;-54
2023/10/19 03:26:18;;;;;;;18.70;13.57;;;8.30;99.90;;;;;;5033264;28;20202;-54
2023/10/19 03:28:44;;;;;;;17.53;13.10;;;8.40;99.90;;;;;;5034020;28;20244;-55
2023/10/19 03:31:17;;;;;;;18.23;14.10;;;8.50;99.90;;;;;;5053391;28;20190;-54
2023/10/19 03:33:44;;;;;;;17.50;13.70;;;8.50;99.90;;;;;;5052767;28;20187;-54
2023/10/19 03:36:13;;;;;;;19.13;14.50;;;8.50;99.90;;;;;;5057160;28;20218;-57
2023/10/19 03:38:40;;;;;;;26.33;16.30;;;8.40;99.90;;;;;;5051627;28;20568;-54
2023/10/19 03:41:07;;;;;;;17.87;13.53;;;8.50;99.90;;;;;;5053011;28;20201;-55
2023/10/19 03:43:34;;;;;;;19.30;13.13;;;8.50;99.90;;;;;;5030262;28;20712;-54
2023/10/19 03:48:48;;;;;;;17.17;14.37;;;8.40;99.90;;;;;;5047819;28;20224;-54
2023/10/19 03:51:14;;;;;;;21.00;14.03;;;8.50;99.90;;;;;;5045183;28;20668;-55
2023/10/19 03:53:44;;;;;;;17.90;13.13;;;8.40;99.90;;;;;;5053891;28;20193;-54
2023/10/19 03:56:11;;;;;;;22.10;14.33;;;8.40;99.90;;;;;;5034265;28;20289;-54
2023/10/19 03:58:39;;;;;;;22.50;14.03;;;8.50;99.90;;;;;;5053816;28;20645;-54
2023/10/19 04:01:05;;;;;;;19.27;13.73;;;8.60;99.90;;;;;;5055590;28;20710;-54
2023/10/19 04:03:31;;;;;;;18.93;14.73;;;8.50;99.90;;;;;;5033441;28;20194;-55
2023/10/19 04:06:04;;;;;;;19.17;14.83;;;8.60;99.90;;;;;;5033449;28;20572;-55
2023/10/19 04:08:35;;;;;;;17.23;14.27;;;8.50;99.90;;;;;;5051333;28;20707;-55
2023/10/19 04:11:21;;;;;;;21.07;14.87;;;8.50;99.90;;;;;;5051544;28;20251;-54
2023/10/19 04:13:47;;;;;;;24.50;16.47;;;8.50;99.90;;;;;;5048707;28;20193;-54
2023/10/19 04:16:14;;;;;;;23.57;15.40;;;8.30;99.90;;;;;;5057887;28;20739;-53
2023/10/19 04:18:43;;;;;;;19.57;14.93;;;8.20;99.90;;;;;;5050558;28;20578;-54
2023/10/19 04:21:09;;;;;;;21.10;14.23;;;8.20;99.90;;;;;;5051790;28;20198;-54
2023/10/19 04:23:35;;;;;;;20.00;14.83;;;8.10;99.90;;;;;;5048940;28;20202;-54
2023/10/19 04:26:05;;;;;;;23.23;15.90;;;8.20;99.90;;;;;;5026121;28;20296;-56
2023/10/19 04:28:37;;;;;;;22.57;15.77;;;8.30;99.90;;;;;;5029288;28;20194;-54
2023/10/19 04:31:03;;;;;;;17.20;13.90;;;8.40;99.90;;;;;;5049842;28;20210;-54
2023/10/19 04:33:31;;;;;;;20.97;15.40;;;8.40;99.90;;;;;;5032877;28;20205;-54
2023/10/19 04:35:59;;;;;;;24.63;16.00;;;8.40;99.90;;;;;;5055673;28;20214;-54
2023/10/19 04:38:25;;;;;;;19.87;14.93;;;8.40;99.90;;;;;;5056541;28;20205;-55
2023/10/19 04:40:51;;;;;;;18.57;15.13;;;8.20;99.90;;;;;;5054461;28;20202;-61
2023/10/19 04:43:17;;;;;;;23.93;15.30;;;8.30;99.90;;;;;;5050811;28;20208;-58
2023/10/19 04:45:44;;;;;;;24.40;16.47;;;8.30;99.90;;;;;;5042861;28;20249;-54
2023/10/19 04:48:10;;;;;;;19.47;14.53;;;8.10;99.90;;;;;;5049422;28;20198;-57
2023/10/19 04:50:36;;;;;;;21.60;15.97;;;8.10;99.90;;;;;;5048592;28;20360;-55
2023/10/19 04:53:02;;;;;;;20.23;15.03;;;8.20;99.90;;;;;;5050311;28;20209;-57
2023/10/19 04:55:29;;;;;;;22.47;15.17;;;8.30;99.90;;;;;;5032419;28;20651;-58
2023/10/19 04:57:56;;;;;;;23.90;16.83;;;8.10;99.90;;;;;;5049706;28;20190;-56
2023/10/19 05:00:24;;;;;;;17.90;11.73;;;7.80;99.90;;;;;;5053816;28;20909;-52
2023/10/19 05:02:51;;;;;;;21.97;16.83;;;7.80;99.90;;;;;;5051557;28;20214;-52
2023/10/19 05:05:17;;;;;;;21.83;16.73;;;7.80;99.90;;;;;;5057143;28;20791;-55
2023/10/19 05:07:43;;;;;;;20.80;16.13;;;7.70;99.90;;;;;;5056742;28;20281;-53
2023/10/19 05:10:09;;;;;;;28.67;15.33;;;7.70;99.90;;;;;;5030834;28;20251;-54
2023/10/19 05:12:34;;;;;;;24.40;17.73;;;7.70;99.90;;;;;;5030229;28;20260;-54
2023/10/19 05:15:00;;;;;;;25.67;16.43;;;7.70;99.90;;;;;;5049058;28;20214;-54
2023/10/19 05:17:27;;;;;;;24.30;16.70;;;7.70;99.90;;;;;;5054275;28;20871;-54
2023/10/19 05:19:52;;;;;;;24.43;15.20;;;7.80;99.90;;;;;;5035339;28;20209;-55
2023/10/19 05:22:19;;;;;;;22.33;16.53;;;7.80;99.90;;;;;;5055135;28;20509;-55
2023/10/19 05:24:44;;;;;;;24.07;15.83;;;7.80;99.90;;;;;;5056278;28;20209;-54
2023/10/19 05:27:10;;;;;;;23.07;17.87;;;7.60;99.90;;;;;;5054483;28;20194;-54
2023/10/19 05:29:36;;;;;;;26.03;17.57;;;7.70;99.90;;;;;;5054145;28;20221;-54
2023/10/19 05:32:03;;;;;;;24.37;16.30;;;7.70;99.90;;;;;;5050132;28;20197;-54
2023/10/19 05:34:35;;;;;;;19.77;15.20;;;7.80;99.90;;;;;;5058650;28;20564;-54
2023/10/19 05:37:02;;;;;;;25.10;16.87;;;7.80;99.90;;;;;;5035611;28;20198;-54
2023/10/19 05:39:28;;;;;;;19.90;15.63;;;7.80;99.90;;;;;;5054256;28;20250;-54
2023/10/19 05:41:54;;;;;;;24.17;16.90;;;7.80;99.90;;;;;;5053579;28;20218;-55
2023/10/19 05:44:20;;;;;;;24.40;16.60;;;7.70;99.90;;;;;;5026526;28;20243;-54
2023/10/19 05:46:46;;;;;;;24.83;17.17;;;7.80;99.90;;;;;;5058470;28;20961;-54
2023/10/19 05:49:12;;;;;;;22.47;17.43;;;7.80;99.90;;;;;;5053475;28;20206;-55
2023/10/19 05:51:38;;;;;;;25.67;17.97;;;7.80;99.90;;;;;;5050914;28;20205;-54
2023/10/19 05:54:04;;;;;;;24.47;18.07;;;7.80;99.90;;;;;;5046409;28;20692;-54
2023/10/19 05:56:30;;;;;;;24.83;18.90;;;7.70;99.90;;;;;;5041858;28;20202;-54
2023/10/19 05:58:56;;;;;;;25.87;18.90;;;7.60;99.90;;;;;;5049452;28;20190;-54
2023/10/19 06:01:22;;;;;;;24.43;18.77;;;7.70;99.90;;;;;;5052075;28;20210;-55
2023/10/19 06:03:48;;;;;;;25.80;16.60;;;7.80;99.90;;;;;;5035129;28;20198;-54
2023/10/19 06:06:13;;;;;;;26.77;18.57;;;7.80;99.90;;;;;;5057834;28;20228;-54
2023/10/19 06:08:40;;;;;;;25.63;18.80;;;7.60;99.90;;;;;;5034733;28;20198;-55
2023/10/19 06:11:06;;;;;;;25.00;17.70;;;7.50;99.90;;;;;;5035221;28;20198;-54
2023/10/19 06:13:32;;;;;;;26.10;17.90;;;7.70;99.90;;;;;;5053375;28;20532;-55
2023/10/19 06:15:57;;;;;;;24.70;18.13;;;7.70;99.90;;;;;;5033470;28;20284;-52
2023/10/19 06:18:23;;;;;;;30.60;19.47;;;7.70;99.90;;;;;;5053008;28;20324;-54
2023/10/19 06:20:50;;;;;;;27.03;18.67;;;7.70;99.90;;;;;;5049299;28;20954;-54
2023/10/19 06:23:17;;;;;;;27.10;18.13;;;7.70;99.90;;;;;;5052721;28;20225;-54
2023/10/19 06:25:43;;;;;;;25.60;17.60;;;7.60;99.90;;;;;;5052796;28;20274;-54
2023/10/19 06:28:11;;;;;;;25.20;19.10;;;7.40;99.90;;;;;;5056278;28;20197;-54
2023/10/19 06:30:37;;;;;;;28.30;19.93;;;7.50;99.90;;;;;;5052652;28;20198;-54
2023/10/19 06:33:02;;;;;;;23.87;18.37;;;7.40;99.90;;;;;;5055295;28;20193;-54
2023/10/19 06:35:31;;;;;;;25.50;18.53;;;7.30;99.90;;;;;;5053034;28;20197;-54
2023/10/19 06:37:58;;;;;;;31.97;20.33;;;7.30;99.90;;;;;;5056303;28;20198;-54
2023/10/19 06:40:24;;;;;;;31.80;21.63;;;7.30;99.90;;;;;;5061458;28;20194;-55
2023/10/19 06:42:49;;;;;;;28.63;19.90;;;7.40;99.90;;;;;;5059778;28;20722;-54
2023/10/19 06:45:18;;;;;;;24.50;19.87;;;7.50;99.90;;;;;;5058666;28;20965;-54
2023/10/19 06:47:46;;;;;;;31.83;19.60;;;7.60;99.90;;;;;;5062009;28;20567;-54
2023/10/19 06:50:15;;;;;;;27.90;20.17;;;7.60;99.90;;;;;;5063474;28;20178;-53
2023/10/19 06:52:42;;;;;;;28.50;20.27;;;7.50;99.90;;;;;;5054864;28;20203;-53
2023/10/19 06:55:16;;;;;;;28.40;20.27;;;7.60;99.90;;;;;;5044451;28;20194;-54
2023/10/19 06:57:46;;;;;;;27.57;18.97;;;7.70;99.90;;;;;;5061459;28;20672;-54
2023/10/19 07:00:16;;;;;;;33.00;20.67;;;7.60;99.90;;;;;;5043763;28;20784;-55
2023/10/19 07:02:45;;;;;;;28.53;18.93;;;7.50;99.90;;;;;;5062024;28;20293;-54
2023/10/19 07:05:11;;;;;;;25.87;20.43;;;7.60;99.90;;;;;;5062393;28;20237;-54
2023/10/19 07:07:42;;;;;;;26.33;20.07;;;7.70;99.90;;;;;;5063290;28;20320;-54
2023/10/19 07:10:09;;;;;;;31.03;19.33;;;7.70;99.90;;;;;;5061133;28;20209;-53
2023/10/19 07:12:36;;;;;;;27.10;18.60;;;7.80;99.90;;;;;;5055542;28;20199;-54
2023/10/19 07:15:03;;;;;;;27.67;18.73;;;7.80;99.90;;;;;;5062056;28;20176;-55
2023/10/19 07:17:28;;;;;;;28.37;19.90;;;7.80;99.90;;;;;;5068899;28;20202;-53
2023/10/19 07:19:54;;;;;;;26.67;18.93;;;7.70;99.90;;;;;;5042907;28;20183;-54
2023/10/19 07:22:22;;;;;;;27.13;18.53;;;7.60;99.90;;;;;;5043632;28;20213;-54
2023/10/19 07:24:48;;;;;;;23.90;17.90;;;7.70;99.90;;;;;;5062559;28;20800;-53
2023/10/19 07:27:18;;;;;;;30.53;19.40;;;7.60;99.90;;;;;;5060311;28;20258;-53
2023/10/19 07:29:44;;;;;;;29.00;21.00;;;7.50;99.90;;;;;;5062375;28;20186;-53
2023/10/19 07:32:13;;;;;;;32.57;20.30;;;7.50;99.90;;;;;;5071997;28;20195;-53
2023/10/19 07:34:39;;;;;;;34.47;21.20;;;7.60;99.90;;;;;;5062316;28;20170;-54
2023/10/19 07:37:05;;;;;;;22.77;19.10;;;7.70;99.90;;;;;;5072032;28;20185;-53
2023/10/19 07:39:33;;;;;;;29.87;19.73;;;7.70;99.90;;;;;;5046775;28;20221;-54
2023/10/19 07:41:59;;;;;;;28.67;18.57;;;7.80;99.90;;;;;;5063597;28;20194;-54
2023/10/19 07:44:25;;;;;;;29.70;20.00;;;7.90;99.90;;;;;;5059896;28;20185;-55
2023/10/19 07:46:52;;;;;;;29.43;19.17;;;7.90;99.90;;;;;;5041255;28;20206;-54
2023/10/19 07:49:17;;;;;;;32.10;18.13;;;8.10;99.90;;;;;;5038750;28;20288;-55
2023/10/19 07:51:49;;;;;;;32.27;20.47;;;8.10;99.90;;;;;;5061240;28;20315;-55
2023/10/19 07:54:15;;;;;;;91.10;27.90;;;8.00;99.90;;;;;;5061468;28;20181;-55
2023/10/19 07:56:41;;;;;;;29.33;17.60;;;8.00;99.90;;;;;;5056973;28;20596;-56
2023/10/19 07:59:07;;;;;;;21.17;18.30;;;8.10;99.90;;;;;;5060926;28;20181;-53
2023/10/19 08:01:33;;;;;;;24.77;16.60;;;8.20;99.90;;;;;;5043716;28;20545;-55
2023/10/19 08:03:58;;;;;;;25.27;17.83;;;8.30;99.90;;;;;;5063217;28;20202;-54
2023/10/19 08:06:24;;;;;;;23.73;16.50;;;8.20;99.90;;;;;;5057140;28;20224;-55
2023/10/19 08:08:50;;;;;;;23.63;17.40;;;8.40;99.90;;;;;;5060952;28;20580;-63
2023/10/19 08:11:16;;;;;;;28.60;18.03;;;8.30;99.90;;;;;;5042092;28;20230;-57
2023/10/19 08:13:42;;;;;;;29.53;19.00;;;8.40;99.90;;;;;;5042770;28;20209;-57
2023/10/19 08:16:07;;;;;;;24.27;17.20;;;8.50;99.90;;;;;;5059918;28;20619;-57
2023/10/19 08:18:35;;;;;;;23.87;17.37;;;8.30;99.90;;;;;;5063178;28;20205;-56
2023/10/19 08:21:01;;;;;;;24.87;18.43;;;8.20;99.90;;;;;;5064661;28;20185;-57
2023/10/19 08:23:27;;;;;;;22.17;17.53;;;8.10;99.90;;;;;;5059442;28;20321;-60
2023/10/19 08:25:53;;;;;;;27.77;18.57;;;8.20;99.90;;;;;;5044576;28;20221;-57
2023/10/19 08:28:19;;;;;;;28.10;18.70;;;8.10;99.90;;;;;;5058324;28;20194;-62
2023/10/19 08:30:56;;;;;;;24.83;18.13;;;8.10;99.90;;;;;;5054409;28;20213;-81
2023/10/19 08:33:22;;;;;;;30.20;17.43;;;8.10;99.90;;;;;;5060571;28;20197;-58
2023/10/19 08:35:48;;;;;;;23.83;17.47;;;8.10;99.90;;;;;;5054581;28;20202;-60
2023/10/19 08:38:13;;;;;;;23.70;16.23;;;8.10;99.90;;;;;;5050379;28;20255;-56
2023/10/19 08:40:39;;;;;;;22.97;15.73;;;8.10;99.90;;;;;;5055024;28;20193;-57
2023/10/19 08:43:07;;;;;;;25.07;18.63;;;8.10;99.90;;;;;;5051604;28;20205;-57
2023/10/19 08:45:34;;;;;;;26.77;19.63;;;8.10;99.90;;;;;;5053754;28;20186;-57
2023/10/19 08:48:01;;;;;;;38.23;20.07;;;8.30;99.90;;;;;;5056573;28;20219;-56
2023/10/19 08:50:29;;;;;;;22.83;17.53;;;8.40;99.90;;;;;;5052966;28;20205;-60
2023/10/19 08:52:56;;;;;;;21.10;17.00;;;8.50;99.90;;;;;;5058080;28;20209;-63
2023/10/19 08:55:22;;;;;;;21.80;17.77;;;8.30;99.90;;;;;;5043543;28;20254;-65
2023/10/19 08:57:51;;;;;;;23.00;17.97;;;8.40;99.90;;;;;;5060110;28;20221;-57
2023/10/19 09:00:18;;;;;;;23.10;17.20;;;8.40;99.90;;;;;;5059709;28;20229;-60
2023/10/19 09:02:45;;;;;;;30.43;17.13;;;8.40;99.90;;;;;;5062063;28;20281;-60
2023/10/19 09:05:19;;;;;;;25.53;16.67;;;8.50;99.90;;;;;;5059725;28;20273;-64
2023/10/19 09:07:54;;;;;;;20.30;16.17;;;8.60;99.90;;;;;;5038337;28;20568;-61
2023/10/19 09:10:25;;;;;;;22.47;17.97;;;8.70;99.90;;;;;;5061834;28;20219;-61
2023/10/19 09:13:22;;;;;;;21.97;17.30;;;8.80;99.90;;;;;;5061346;28;20202;-62
2023/10/19 09:15:55;;;;;;;21.07;16.37;;;8.70;99.90;;;;;;5061879;28;20255;-57
2023/10/19 09:18:23;;;;;;;19.30;14.83;;;8.70;99.90;;;;;;5045074;28;20189;-57
2023/10/19 09:20:53;;;;;;;20.50;15.67;;;8.80;99.90;;;;;;5042241;28;20734;-62
2023/10/19 09:23:28;;;;;;;21.23;15.93;;;8.70;99.90;;;;;;5062148;28;20285;-57
2023/10/19 09:25:58;;;;;;;20.97;16.13;;;8.60;99.90;;;;;;5059227;28;20229;-56
2023/10/19 09:28:24;;;;;;;21.57;16.33;;;8.50;99.90;;;;;;5064639;28;20413;-57
2023/10/19 09:30:50;;;;;;;23.47;16.63;;;8.60;99.90;;;;;;5064732;28;20680;-58
2023/10/19 09:33:17;;;;;;;23.63;16.50;;;8.50;99.90;;;;;;5061379;28;20201;-66
2023/10/19 09:35:48;;;;;;;21.77;15.67;;;8.60;99.90;;;;;;5029750;28;20198;-64
2023/10/19 09:38:15;;;;;;;22.73;16.43;;;8.70;99.90;;;;;;5031304;28;20214;-60
2023/10/19 09:40:42;;;;;;;19.77;16.90;;;8.90;99.90;;;;;;5037679;28;20214;-71
2023/10/19 09:43:16;;;;;;;25.73;15.10;;;8.70;99.90;;;;;;5034267;28;20210;-72
2023/10/19 09:45:51;;;;;;;25.00;16.37;;;8.60;99.90;;;;;;5050180;28;20233;-65
2023/10/19 09:48:17;;;;;;;25.23;17.07;;;8.60;99.90;;;;;;5054045;28;20196;-59
2023/10/19 09:51:04;;;;;;;25.77;16.97;;;8.40;99.90;;;;;;5012097;28;20687;-59
2023/10/19 09:53:31;;;;;;;25.07;17.77;;;8.60;99.90;;;;;;5051785;28;20194;-58
2023/10/19 09:56:00;;;;;;;21.27;17.30;;;8.60;99.90;;;;;;5049793;28;20198;-59
2023/10/19 09:58:55;;;;;;;26.20;17.43;;;8.70;99.90;;;;;;5053856;28;20289;-59
2023/10/19 10:01:21;;;;;;;22.70;15.93;;;8.80;99.90;;;;;;5054150;28;20221;-57
2023/10/19 10:03:51;;;;;;;20.23;16.93;;;8.60;99.90;;;;;;5053452;28;20187;-58
2023/10/19 10:06:26;;;;;;;26.47;17.07;;;8.60;99.90;;;;;;5052928;28;20619;-58
2023/10/19 10:08:52;;;;;;;21.43;17.00;;;8.90;99.90;;;;;;5059124;28;20217;-59
2023/10/19 10:11:23;;;;;;;21.97;16.37;;;8.90;99.90;;;;;;5058825;28;20672;-58
2023/10/19 10:13:53;;;;;;;25.87;17.70;;;8.90;99.90;;;;;;5052653;28;20195;-59
2023/10/19 10:16:29;;;;;;;23.97;17.27;;;9.10;99.90;;;;;;5054587;28;20219;-59
2023/10/19 10:18:58;;;;;;;22.03;15.77;;;9.00;99.90;;;;;;5052261;28;20212;-68
2023/10/19 10:21:24;;;;;;;22.00;16.20;;;9.10;99.90;;;;;;5055156;28;20186;-71
2023/10/19 10:23:59;;;;;;;22.20;17.13;;;9.30;99.90;;;;;;5044774;28;20676;-60
2023/10/19 10:26:29;;;;;;;23.77;17.50;;;9.20;99.90;;;;;;5062443;28;20217;-60
2023/10/19 10:29:14;;;;;;;22.13;17.37;;;9.30;99.90;;;;;;5056672;28;20214;-61
2023/10/19 10:31:47;;;;;;;29.07;16.90;;;9.20;99.90;;;;;;5063747;28;20194;-57
2023/10/19 10:34:38;;;;;;;21.20;15.50;;;9.10;99.90;;;;;;5059265;28;20236;-55
2023/10/19 10:37:08;;;;;;;23.43;17.03;;;9.10;99.90;;;;;;5036507;28;20213;-58
2023/10/19 10:39:36;;;;;;;26.23;17.33;;;9.20;99.90;;;;;;5053183;28;20201;-64
2023/10/19 10:42:04;;;;;;;23.77;17.57;;;9.10;99.90;;;;;;5034421;28;20240;-59
2023/10/19 10:44:45;;;;;;;23.07;17.37;;;9.00;99.90;;;;;;5049138;28;20194;-64
2023/10/19 10:47:16;;;;;;;24.23;18.87;;;9.20;99.90;;;;;;5034095;28;20213;-59
2023/10/19 10:49:56;;;;;;;23.03;17.60;;;9.00;99.90;;;;;;5034730;28;20201;-58
2023/10/19 10:52:33;;;;;;;27.73;19.20;;;8.90;99.90;;;;;;5031786;28;20630;-58
2023/10/19 10:55:12;;;;;;;22.60;17.57;;;9.10;99.90;;;;;;5050625;28;20217;-59
2023/10/19 10:57:39;;;;;;;26.23;20.40;;;9.00;99.90;;;;;;5046868;28;20816;-59
2023/10/19 11:00:14;;;;;;;23.03;19.03;;;8.80;99.90;;;;;;5038426;28;20239;-59
2023/10/19 11:02:43;;;;;;;24.20;18.80;;;8.90;99.90;;;;;;5037195;28;20221;-59
2023/10/19 11:05:11;;;;;;;22.67;18.73;;;9.00;99.90;;;;;;5021927;28;20285;-58
2023/10/19 11:07:41;;;;;;;26.00;19.53;;;9.10;99.90;;;;;;5031967;28;20203;-58
2023/10/19 11:10:06;;;;;;;27.00;20.20;;;9.10;99.90;;;;;;5029112;28;20195;-58
2023/10/19 11:12:32;;;;;;;24.80;19.57;;;9.00;99.90;;;;;;5028510;28;20209;-65
2023/10/19 11:15:00;;;;;;;24.30;18.80;;;9.10;99.90;;;;;;5025465;28;20206;-58
2023/10/19 11:17:30;;;;;;;26.83;20.43;;;9.20;99.90;;;;;;5027585;28;20195;-58
2023/10/19 11:19:56;;;;;;;28.00;21.80;;;9.10;99.90;;;;;;5008747;28;20194;-59
2023/10/19 11:22:26;;;;;;;26.83;19.67;;;9.00;99.90;;;;;;5029458;28;20199;-59
2023/10/19 11:24:53;;;;;;;27.93;20.13;;;9.10;99.90;;;;;;5028309;28;20696;-58
2023/10/19 11:27:29;;;;;;;29.27;20.50;;;9.30;99.90;;;;;;5028558;28;20285;-58
2023/10/19 11:29:58;;;;;;;28.70;19.40;;;9.40;99.90;;;;;;5033869;28;20202;-58
2023/10/19 11:32:25;;;;;;;24.93;19.70;;;9.40;99.90;;;;;;5029975;28;20210;-59
2023/10/19 11:34:52;;;;;;;25.60;19.80;;;9.30;99.90;;;;;;5035945;28;20959;-59
2023/10/19 11:37:17;;;;;;;25.10;20.27;;;9.40;99.90;;;;;;5031894;28;20202;-58
2023/10/19 11:39:43;;;;;;;27.27;19.83;;;9.50;99.90;;;;;;5031982;28;20213;-59
2023/10/19 11:42:10;;;;;;;26.73;20.33;;;9.20;99.90;;;;;;5032104;28;20199;-59
2023/10/19 11:44:36;;;;;;;25.87;19.40;;;9.30;99.90;;;;;;5029859;28;20753;-59
2023/10/19 11:47:02;;;;;;;24.70;20.73;;;9.60;99.90;;;;;;5035548;28;20780;-59
2023/10/19 11:49:28;;;;;;;31.60;20.33;;;9.50;99.90;;;;;;5015534;28;20731;-59
2023/10/19 11:51:54;;;;;;;25.80;19.97;;;9.40;99.90;;;;;;5031360;28;20200;-59
2023/10/19 11:54:19;;;;;;;31.73;21.07;;;9.40;99.90;;;;;;5032490;28;20276;-58
2023/10/19 11:56:45;;;;;;;23.47;20.00;;;9.60;99.90;;;;;;5013471;28;20225;-58
2023/10/19 11:59:12;;;;;;;25.67;19.63;;;9.50;99.90;;;;;;5031040;28;20218;-59
2023/10/19 12:01:38;;;;;;;24.80;20.13;;;9.70;99.90;;;;;;5031753;28;20191;-59
2023/10/19 12:04:05;;;;;;;31.03;20.77;;;9.60;99.90;;;;;;5031354;28;20231;-60
2023/10/19 12:06:31;;;;;;;30.03;19.37;;;9.10;99.90;;;;;;5032758;28;20233;-59
2023/10/19 12:08:59;;;;;;;28.30;21.27;;;9.20;99.90;;;;;;5029417;28;20206;-59
2023/10/19 12:11:25;;;;;;;27.87;19.53;;;9.20;99.90;;;;;;5027522;28;20279;-60
2023/10/19 12:13:50;;;;;;;24.83;20.17;;;9.20;99.90;;;;;;5028015;28;20199;-58
2023/10/19 12:16:16;;;;;;;25.33;19.23;;;9.40;99.90;;;;;;5031712;28;20658;-58
2023/10/19 12:18:42;;;;;;;26.87;20.07;;;9.60;99.90;;;;;;5027221;28;20609;-59
2023/10/19 12:21:11;;;;;;;25.53;20.67;;;9.80;99.90;;;;;;5026791;28;20208;-58
2023/10/19 12:23:40;;;;;;;26.67;22.00;;;9.90;99.90;;;;;;5031333;28;20199;-59
2023/10/19 12:26:11;;;;;;;23.77;21.00;;;9.80;99.90;;;;;;5030892;28;20312;-59
2023/10/19 12:28:38;;;;;;;27.67;21.43;;;9.50;99.90;;;;;;5031142;28;20670;-59
2023/10/19 12:31:05;;;;;;;26.37;20.20;;;9.50;99.90;;;;;;5024805;28;20273;-59
2023/10/19 12:33:31;;;;;;;27.10;20.00;;;9.70;99.90;;;;;;5031354;28;20621;-59
2023/10/19 12:35:59;;;;;;;25.70;19.97;;;9.80;99.90;;;;;;5030981;28;20665;-59
2023/10/19 12:38:25;;;;;;;32.60;22.07;;;9.70;99.90;;;;;;5026497;28;20199;-58
2023/10/19 12:40:51;;;;;;;26.77;21.23;;;9.60;99.90;;;;;;5012753;28;20205;-58
2023/10/19 12:43:25;;;;;;;28.03;21.73;;;9.60;99.90;;;;;;5030864;28;20195;-59
2023/10/19 12:48:33;;;;;;;26.70;21.87;;;9.70;99.90;;;;;;5019358;28;20227;-58
2023/10/19 12:50:58;;;;;;;30.13;19.70;;;9.80;99.90;;;;;;5022651;28;20194;-59
2023/10/19 12:53:24;;;;;;;24.77;19.93;;;9.70;99.90;;;;;;5026448;28;20207;-59
2023/10/19 12:55:52;;;;;;;25.93;20.90;;;9.90;99.90;;;;;;5027814;28;21080;-60